Ashton, ID

4:07 PM MDT on October 25, 2014 (GMT -0600)
Ashton Community Pharmacy-23 S 8th St | Change Station
CLOSE
Current Station
Personal Weather Station
Location: Ashton, ID
Elevation: 5260 ft
Nearby Weather Stations
Active Advisory: Special Statement

Elev 5260 ft 44.07 °N, 111.45 °W | Updated 1 minute ago

Clear
Clear
71.2 °F
Feels Like 75 °F
N
12.0
Wind Variable Wind from SW
Gusts 26.0 mph

Today
High -- | Low -- °F
--% Chance of Precip.
Yesterday
High -- | Low -- °F
Precip. -- in
7:52 AM 6:25 PM
Waxing Crescent, 4% visible
Pressure 29.82 in
Visibility 10.0 miles
Clouds Clear
Heat Index 75 °F
Dew Point 29 °F
Humidity 21%
Rainfall -999.00 in
Snow Depth Not available.
UV 2 out of 12
Pollen 3.20 out of 12
Air Quality Not available.
Flu Activity No Activity
METAR KDIJ 252156Z AUTO 21016G21KT 10SM CLR 22/M02 A2999 RMK AO2 T02161022 PK WND 20028/2115 SLP098

More Conditions Fewer Conditions

Pressure 29.82 in
Visibility 10.0 miles
Clouds Clear
Heat Index 75 °F
Dew Point 29 °F
Humidity 21%
Rainfall -999.00 in
Snow Depth Not available.
UV 2 out of 12
Pollen 3.20 out of 12
Air Quality Not available.
Flu Activity No Activity
METAR KDIJ 252156Z AUTO 21016G21KT 10SM CLR 22/M02 A2999 RMK AO2 T02161022 PK WND 20028/2115 SLP098

More Conditions Fewer Conditions

10-Day Weather Forecast

Almanac

Astronomy

Oct. 25, 2014 Rise Set
Actual Time 7:52 AM MDT 6:25 PM MDT
Civil Twilight 7:23 AM MDT 6:55 PM MDT
Nautical Twilight 6:49 AM MDT 7:28 PM MDT
Astronomical Twilight 6:16 AM MDT 8:02 PM MDT
Moon 9:38 AM MDT 7:48 PM MDT
Length of Visible Light 11h 31m
Length of Day
10h 32m
Tomorrow will be 2m 49s shorter.
Waxing Crescent, 4% of the Moon is Illuminated
Today
Waxing Crescent
Oct 30
First Quarter
Nov 6
Full
Nov 14
Last Quarter
Nov 22
New

Today's Extremes

State Highs State Lows

Community

WunderPhotos

Upload Photos

1,765,009 photos uploaded!

Nearby

Snow Depth

Station Depth Elevation
Sheep Mountain 0 in 6570 ft
Somsen Ranch 0 in 6800 ft
Hilts Creek 0 in 8000 ft
Wildhorse Divide 1 in 6490 ft
Emigrant Summit 0 in 7390 ft

Earthquake Activity

City Distance Mag. Time & Date
No recent earthquake activity has been reported nearby.
Minimum magnitude displayed is 2.5.

Coastal Water Temperatures

Place Temperature
No Stations Reporting

Nearby Weather Stations